createdAt,value
2022-11-18T00:01:43.659Z,99746.96
2022-11-18T00:04:11.931Z,99742.91
2022-11-18T00:06:42.919Z,99738.76
2022-11-18T00:09:11.299Z,99735.09
2022-11-18T00:12:06.645Z,99723.71
2022-11-18T00:14:34.695Z,99730.32
2022-11-18T00:17:04.378Z,99732.41
2022-11-18T00:19:39.955Z,99736.47
2022-11-18T00:22:12.676Z,99730.32
2022-11-18T00:24:40.545Z,99733.98
2022-11-18T00:27:08.571Z,99736.01
2022-11-18T00:29:36.655Z,99743.82
2022-11-18T00:32:08.964Z,99742.19
2022-11-18T00:34:42.876Z,99743.82
2022-11-18T00:37:11.164Z,99751.08
2022-11-18T00:39:44.039Z,99752.65
2022-11-18T00:42:33.720Z,99752.29
2022-11-18T00:45:01.778Z,99735.65
2022-11-18T00:47:33.979Z,99744.64
2022-11-18T00:50:05.103Z,99757.16
2022-11-18T00:52:33.156Z,99759.19
2022-11-18T00:55:10.280Z,99765.24
2022-11-18T00:57:38.686Z,99759.19
2022-11-18T01:00:11.672Z,99760.76
2022-11-18T01:02:44.332Z,99764.06
2022-11-18T01:05:12.471Z,99742.74
2022-11-18T01:07:44.615Z,99734.54
2022-11-18T01:10:15.758Z,99739.90
2022-11-18T01:13:01.987Z,99748.53
2022-11-18T01:15:31.214Z,99758.38
2022-11-18T01:17:59.109Z,99763.34
2022-11-18T01:20:33.288Z,99760.11
2022-11-18T01:23:09.091Z,99772.79
2022-11-18T01:25:41.520Z,99765.44
2022-11-18T01:28:18.884Z,99765.89
2022-11-18T01:30:51.348Z,99772.79
2022-11-18T01:33:19.463Z,99766.61
2022-11-18T01:35:47.692Z,99760.11
2022-11-18T01:38:20.860Z,99773.51
2022-11-18T01:40:53.275Z,99771.42
2022-11-18T01:43:21.946Z,99776.36
2022-11-18T01:45:54.326Z,99781.98
2022-11-18T01:48:35.159Z,99792.57
2022-11-18T01:51:15.661Z,99805.13
2022-11-18T01:53:55.760Z,99799.08
2022-11-18T01:56:25.657Z,99797.97
2022-11-18T01:59:05.722Z,99798.36
2022-11-18T02:01:34.061Z,99808.46
2022-11-18T02:04:02.169Z,99812.02
2022-11-18T02:06:32.861Z,99811.30
2022-11-18T02:09:03.518Z,99813.70
2022-11-18T02:11:49.795Z,99809.54
2022-11-18T02:14:20.884Z,99795.13
2022-11-18T02:17:26.113Z,99797.15
2022-11-18T02:20:18.413Z,99795.74
2022-11-18T02:23:04.800Z,99814.77
2022-11-18T02:25:35.957Z,99813.50
2022-11-18T02:28:22.634Z,99807.77
2022-11-18T02:31:04.784Z,99809.70
2022-11-18T02:33:56.718Z,99817.81
2022-11-18T02:36:48.057Z,99814.48
2022-11-18T02:39:36.268Z,99822.20
2022-11-18T02:42:06.002Z,99825.86
2022-11-18T02:44:37.071Z,99836.35
2022-11-18T02:47:06.738Z,99831.38
2022-11-18T02:49:40.260Z,99832.69
2022-11-18T02:52:19.522Z,99829.09
2022-11-18T02:54:52.479Z,99835.63
2022-11-18T02:57:23.725Z,99834.66
2022-11-18T02:59:51.884Z,99829.09
2022-11-18T03:02:21.030Z,99830.73
2022-11-18T03:04:49.243Z,99832.30
2022-11-18T03:07:33.106Z,99832.30
2022-11-18T03:10:01.418Z,99834.33
2022-11-18T03:12:47.005Z,99841.65
2022-11-18T03:15:20.884Z,99842.96
2022-11-18T03:18:09.302Z,99842.96
2022-11-18T03:21:09.851Z,99848.32
2022-11-18T03:24:07.861Z,99840.57
2022-11-18T03:26:41.211Z,99842.14
2022-11-18T03:29:17.149Z,99845.48
2022-11-18T03:31:57.128Z,99844.59
2022-11-18T03:34:46.105Z,99847.83
2022-11-18T03:37:15.971Z,99851.88
2022-11-18T03:39:55.362Z,99859.96
2022-11-18T03:42:33.255Z,99871.96
2022-11-18T03:45:07.958Z,99875.98
2022-11-18T03:47:47.571Z,99872.94
2022-11-18T03:50:35.213Z,99875.69
2022-11-18T03:53:09.731Z,99865.03
2022-11-18T03:55:42.022Z,99884.97
2022-11-18T03:58:40.692Z,99881.28
2022-11-18T04:01:19.268Z,99887.95
2022-11-18T04:03:51.713Z,99894.45
2022-11-18T04:06:56.519Z,99901.35
2022-11-18T04:09:31.032Z,99899.23
2022-11-18T04:12:04.386Z,99902.79
2022-11-18T04:14:40.527Z,99908.02
2022-11-18T04:17:21.016Z,99904.00
2022-11-18T04:19:59.649Z,99902.20
2022-11-18T04:22:30.836Z,99897.62
2022-11-18T04:24:59.736Z,99889.65
2022-11-18T04:27:32.584Z,99896.65
2022-11-18T04:30:05.511Z,99899.39
2022-11-18T04:32:38.123Z,99896.94
2022-11-18T04:35:09.445Z,99902.63
2022-11-18T04:37:37.716Z,99911.98
2022-11-18T04:40:06.681Z,99928.23
2022-11-18T04:42:39.067Z,99933.92
2022-11-18T04:45:11.628Z,99940.42
2022-11-18T04:47:39.703Z,99945.76
2022-11-18T04:50:08.207Z,99946.24
2022-11-18T04:52:38.352Z,99936.50
2022-11-18T04:55:06.719Z,99943.40
2022-11-18T04:57:35.917Z,99949.41
2022-11-18T05:00:21.690Z,99955.95
2022-11-18T05:02:50.120Z,99953.57
2022-11-18T05:05:21.827Z,99951.94
2022-11-18T05:07:49.896Z,99963.31
2022-11-18T05:10:18.226Z,99956.31
2022-11-18T05:12:53.015Z,99973.74
2022-11-18T05:15:26.188Z,99969.59
2022-11-18T05:17:59.261Z,99965.41
2022-11-18T05:20:27.215Z,99977.63
2022-11-18T05:22:55.395Z,99971.13
2022-11-18T05:25:33.990Z,99982.73
2022-11-18T05:28:05.281Z,99985.58
2022-11-18T05:30:46.862Z,99985.22
2022-11-18T05:33:19.728Z,99985.94
2022-11-18T05:35:52.381Z,99997.32
2022-11-18T05:38:22.961Z,99995.65
2022-11-18T05:40:53.632Z,99987.09
2022-11-18T05:43:26.389Z,99995.29
2022-11-18T05:45:56.059Z,99991.04
2022-11-18T05:48:25.129Z,99997.55
2022-11-18T05:50:54.393Z,100005.59
2022-11-18T05:53:25.074Z,100000.26
2022-11-18T05:56:09.061Z,100014.98
2022-11-18T05:58:37.227Z,100016.51
2022-11-18T06:01:06.380Z,100015.34
2022-11-18T06:03:35.989Z,100007.16
2022-11-18T06:06:08.592Z,100023.87
2022-11-18T06:08:40.984Z,100018.18
2022-11-18T06:11:13.852Z,100016.97
2022-11-18T06:14:05.120Z,100022.33
2022-11-18T06:16:37.855Z,100030.37
2022-11-18T06:19:09.339Z,100038.77
2022-11-18T06:21:37.450Z,100042.34
2022-11-18T06:24:05.930Z,100048.84
2022-11-18T06:26:34.149Z,100044.37
2022-11-18T06:29:06.411Z,100043.65
2022-11-18T06:31:34.487Z,100056.23
2022-11-18T06:34:06.909Z,100062.74
2022-11-18T06:36:39.784Z,100066.05
2022-11-18T06:39:13.855Z,100066.41
2022-11-18T06:41:42.304Z,100079.45
2022-11-18T06:44:12.267Z,100082.78
2022-11-18T06:46:57.100Z,100081.84
2022-11-18T06:49:32.639Z,100083.34
2022-11-18T06:52:01.879Z,100085.83
2022-11-18T06:54:34.634Z,100089.98
2022-11-18T06:57:03.027Z,100105.61
2022-11-18T06:59:34.169Z,100110.48
2022-11-18T07:02:02.213Z,100101.81
2022-11-18T07:04:30.667Z,100096.98
2022-11-18T07:07:01.763Z,100107.02
2022-11-18T07:09:29.693Z,100110.61
2022-11-18T07:11:58.079Z,100118.88
2022-11-18T07:14:25.843Z,100129.93
2022-11-18T07:16:53.580Z,100134.18
2022-11-18T07:19:21.830Z,100130.88
2022-11-18T07:21:50.763Z,100136.34
2022-11-18T07:24:18.734Z,100134.22
2022-11-18T07:26:49.398Z,100145.10
2022-11-18T07:29:20.384Z,100151.97
2022-11-18T07:31:52.955Z,100154.69
2022-11-18T07:34:26.650Z,100153.31
2022-11-18T07:36:59.729Z,100164.43
2022-11-18T07:39:31.971Z,100165.57
2022-11-18T07:42:00.103Z,100164.72
2022-11-18T07:44:32.816Z,100175.35
2022-11-18T07:47:01.203Z,100175.84
2022-11-18T07:49:29.473Z,100171.69
2022-11-18T07:51:58.939Z,100179.53
2022-11-18T07:54:32.042Z,100184.02
2022-11-18T07:57:10.949Z,100192.02
2022-11-18T07:59:38.953Z,100190.88
2022-11-18T08:02:08.521Z,100190.98
2022-11-18T08:04:38.851Z,100212.69
2022-11-18T08:07:06.899Z,100204.64
2022-11-18T08:09:37.770Z,100210.82
2022-11-18T08:12:06.126Z,100217.10
2022-11-18T08:14:34.460Z,100221.65
2022-11-18T08:17:03.564Z,100226.84
2022-11-18T08:19:36.700Z,100235.18
2022-11-18T08:22:09.191Z,100220.93
2022-11-18T08:24:37.454Z,100232.56
2022-11-18T08:27:09.532Z,100228.19
2022-11-18T08:29:37.650Z,100237.21
2022-11-18T08:32:06.739Z,100234.49
2022-11-18T08:34:40.587Z,100234.73
2022-11-18T08:37:08.715Z,100242.80
2022-11-18T08:39:36.827Z,100252.41
2022-11-18T08:42:10.406Z,100250.06
2022-11-18T08:44:38.795Z,100250.98
2022-11-18T08:47:06.832Z,100244.96
2022-11-18T08:49:34.913Z,100252.31
2022-11-18T08:52:02.691Z,100255.16
2022-11-18T08:54:30.551Z,100248.03
2022-11-18T08:56:58.432Z,100240.45
2022-11-18T08:59:26.285Z,100258.49
2022-11-18T09:01:54.316Z,100250.78
2022-11-18T09:04:22.421Z,100257.80
2022-11-18T09:06:50.186Z,100257.91
2022-11-18T09:09:17.983Z,100261.93
2022-11-18T09:11:45.922Z,100261.21
2022-11-18T09:15:11.696Z,100258.04
2022-11-18T09:17:01.950Z,100254.70
2022-11-18T09:19:46.584Z,100251.23
2022-11-18T09:22:15.528Z,100266.57
2022-11-18T09:24:46.599Z,100263.73
2022-11-18T09:27:17.614Z,100262.29
2022-11-18T09:29:46.788Z,100261.93
2022-11-18T09:32:14.958Z,100263.95
2022-11-18T09:34:43.002Z,100273.47
2022-11-18T09:37:10.887Z,100266.57
2022-11-18T09:39:38.766Z,100268.23
2022-11-18T09:42:10.078Z,100271.45
2022-11-18T09:45:13.344Z,100267.06
2022-11-18T09:47:41.851Z,100269.19
2022-11-18T09:50:48.634Z,100277.13
2022-11-18T09:53:29.135Z,100277.59
2022-11-18T09:55:56.940Z,100281.16
2022-11-18T09:58:42.952Z,100279.29
2022-11-18T10:01:15.153Z,100280.83
2022-11-18T10:03:43.098Z,100284.62
2022-11-18T10:06:11.326Z,100276.67
2022-11-18T10:08:56.675Z,100292.11
2022-11-18T10:11:51.937Z,100289.98
2022-11-18T10:14:34.153Z,100295.67
2022-11-18T10:17:14.593Z,100291.75
2022-11-18T10:19:54.539Z,100290.34
2022-11-18T10:22:28.476Z,100299.13
2022-11-18T10:24:57.730Z,100293.88
2022-11-18T10:27:36.258Z,100305.67
2022-11-18T10:30:08.520Z,100300.67
2022-11-18T10:32:36.486Z,100310.38
2022-11-18T10:35:04.627Z,100310.05
2022-11-18T10:38:00.640Z,100319.31
2022-11-18T10:40:27.039Z,100328.59
2022-11-18T10:42:55.046Z,100323.82
2022-11-18T10:45:22.819Z,100328.70
2022-11-18T10:48:19.757Z,100327.65
2022-11-18T10:50:55.993Z,100328.46
2022-11-18T10:53:29.973Z,100326.44
2022-11-18T10:56:08.429Z,100326.08
2022-11-18T10:58:41.812Z,100328.37
2022-11-18T11:01:23.610Z,100323.46
2022-11-18T11:04:22.174Z,100326.44
2022-11-18T11:06:50.640Z,100323.10
2022-11-18T11:09:28.961Z,100324.64
2022-11-18T11:12:20.574Z,100325.62
2022-11-18T11:14:58.743Z,100332.48
2022-11-18T11:17:30.217Z,100321.70
2022-11-18T11:20:25.013Z,100332.39
2022-11-18T11:22:57.767Z,100323.59
2022-11-18T11:28:23.086Z,100318.49
2022-11-18T11:31:12.400Z,100324.09
2022-11-18T11:34:18.431Z,100326.80
2022-11-18T11:36:53.378Z,100331.67
2022-11-18T11:39:41.287Z,100328.10
2022-11-18T11:42:49.131Z,100330.49
2022-11-18T11:45:42.858Z,100335.33
2022-11-18T11:48:31.891Z,100328.46
2022-11-18T11:51:14.203Z,100338.57
2022-11-18T11:53:45.147Z,100333.92
2022-11-18T11:56:22.597Z,100338.34
2022-11-18T11:59:03.031Z,100333.34
2022-11-18T12:01:41.828Z,100332.88
2022-11-18T12:04:21.393Z,100342.49
2022-11-18T12:07:01.640Z,100352.46
2022-11-18T12:09:46.695Z,100349.36
2022-11-18T12:12:37.746Z,100348.05
2022-11-18T12:15:17.820Z,100348.18
2022-11-18T12:17:57.682Z,100354.59
2022-11-18T12:20:42.153Z,100352.34
2022-11-18T12:23:24.004Z,100360.67
2022-11-18T12:25:54.528Z,100361.16
2022-11-18T12:28:43.557Z,100361.55
2022-11-18T12:31:20.459Z,100355.73
2022-11-18T12:33:49.863Z,100358.38
2022-11-18T12:36:43.539Z,100356.62
2022-11-18T12:39:29.308Z,100347.23
2022-11-18T12:42:19.755Z,100351.61
2022-11-18T12:44:53.209Z,100354.26
2022-11-18T12:47:42.731Z,100363.52
2022-11-18T12:50:22.642Z,100356.16
2022-11-18T12:52:53.899Z,100357.20
2022-11-18T12:55:33.865Z,100364.73
2022-11-18T12:58:01.978Z,100364.73
2022-11-18T13:00:34.950Z,100366.39
2022-11-18T13:03:04.119Z,100369.73
2022-11-18T13:05:33.863Z,100375.41
2022-11-18T13:08:14.858Z,100369.56
2022-11-18T13:10:54.904Z,100369.34
2022-11-18T13:13:34.090Z,100368.62
2022-11-18T13:16:43.295Z,100373.75
2022-11-18T13:19:15.768Z,100369.83
2022-11-18T13:22:02.454Z,100378.85
2022-11-18T13:24:35.918Z,100384.44
2022-11-18T13:27:06.999Z,100390.26
2022-11-18T13:29:58.368Z,100388.10
2022-11-18T13:32:28.385Z,100395.23
2022-11-18T13:35:00.782Z,100400.23
2022-11-18T13:37:32.870Z,100387.88
2022-11-18T13:40:05.401Z,100386.66
2022-11-18T13:42:36.777Z,100384.80
2022-11-18T13:45:09.419Z,100379.93
2022-11-18T13:47:42.571Z,100383.82
2022-11-18T13:50:23.590Z,100383.27
2022-11-18T13:53:16.435Z,100386.83
2022-11-18T13:55:59.405Z,100387.74
2022-11-18T13:58:40.076Z,100394.87
2022-11-18T14:01:34.423Z,100394.67
2022-11-18T14:04:06.696Z,100388.95
2022-11-18T14:06:35.619Z,100393.46
2022-11-18T14:09:18.449Z,100395.36
2022-11-18T14:12:10.691Z,100396.31
2022-11-18T14:14:39.926Z,100394.15
2022-11-18T14:17:22.202Z,100396.99
2022-11-18T14:19:51.952Z,100400.20
2022-11-18T14:22:23.601Z,100404.45
2022-11-18T14:25:25.649Z,100403.17
2022-11-18T14:28:25.140Z,100405.50
2022-11-18T14:31:23.578Z,100407.52
2022-11-18T14:34:13.138Z,100405.73
2022-11-18T14:36:46.470Z,100405.95
2022-11-18T14:39:27.089Z,100414.52
2022-11-18T14:41:56.227Z,100408.30
2022-11-18T14:44:25.572Z,100420.54
2022-11-18T14:47:00.441Z,100416.87
2022-11-18T14:49:28.678Z,100426.13
2022-11-18T14:51:56.586Z,100435.88
2022-11-18T14:54:27.419Z,100437.96
2022-11-18T14:57:01.618Z,100438.42
2022-11-18T14:59:29.406Z,100435.71
2022-11-18T15:01:57.581Z,100437.73
2022-11-18T15:04:26.538Z,100432.11
2022-11-18T15:06:54.587Z,100435.19
2022-11-18T15:09:22.458Z,100436.72
2022-11-18T15:11:50.310Z,100433.23
2022-11-18T15:14:18.252Z,100437.15
2022-11-18T15:16:46.240Z,100438.81
2022-11-18T15:19:16.274Z,100434.76
2022-11-18T15:21:45.016Z,100439.77
2022-11-18T15:24:12.844Z,100451.53
2022-11-18T15:26:42.225Z,100452.68
2022-11-18T15:29:19.438Z,100454.84
2022-11-18T15:31:47.719Z,100462.23
2022-11-18T15:34:15.861Z,100460.88
2022-11-18T15:36:43.717Z,100463.11
2022-11-18T15:39:11.859Z,100467.98
2022-11-18T15:41:40.825Z,100468.66
2022-11-18T15:44:10.520Z,100465.33
2022-11-18T15:46:38.308Z,100468.66
2022-11-18T15:49:09.282Z,100470.56
2022-11-18T15:51:37.623Z,100474.55
2022-11-18T15:54:05.398Z,100470.07
2022-11-18T15:56:33.966Z,100472.91
2022-11-18T15:59:08.842Z,100481.77
2022-11-18T16:01:38.464Z,100474.42
2022-11-18T16:04:07.696Z,100484.49
2022-11-18T16:06:35.550Z,100484.36
2022-11-18T16:09:03.523Z,100479.03
2022-11-18T16:11:49.997Z,100493.09
2022-11-18T16:14:19.304Z,100489.92
2022-11-18T16:16:48.547Z,100493.09
2022-11-18T16:19:18.242Z,100494.82
2022-11-18T16:21:48.151Z,100494.53
2022-11-18T16:24:18.880Z,100502.38
2022-11-18T16:26:46.881Z,100510.74
2022-11-18T16:29:17.459Z,100495.70
2022-11-18T16:31:51.520Z,100499.20
2022-11-18T16:34:24.135Z,100496.33
2022-11-18T16:36:53.509Z,100507.38
2022-11-18T16:39:25.790Z,100501.85
2022-11-18T16:41:55.217Z,100510.52
2022-11-18T16:44:23.099Z,100513.85
2022-11-18T16:46:56.060Z,100510.32
2022-11-18T16:49:25.759Z,100520.26
2022-11-18T16:51:54.719Z,100520.72
2022-11-18T16:54:24.445Z,100510.38
2022-11-18T16:56:53.360Z,100516.08
2022-11-18T16:59:28.008Z,100505.52
2022-11-18T17:01:56.675Z,100523.43
2022-11-18T17:04:25.682Z,100521.08
2022-11-18T17:06:53.632Z,100530.46
2022-11-18T17:09:23.105Z,100532.16
2022-11-18T17:11:51.378Z,100528.53
2022-11-18T17:14:20.661Z,100539.91
2022-11-18T17:16:48.461Z,100531.05
2022-11-18T17:19:24.030Z,100536.38
2022-11-18T17:21:52.295Z,100548.25
2022-11-18T17:24:22.067Z,100544.59
2022-11-18T17:26:50.535Z,100539.91
2022-11-18T17:29:18.587Z,100545.27
2022-11-18T17:31:46.559Z,100549.10
2022-11-18T17:34:15.291Z,100544.29
2022-11-18T17:36:43.498Z,100560.05
2022-11-18T17:39:12.249Z,100563.71
2022-11-18T17:41:58.737Z,100572.25
2022-11-18T17:44:26.549Z,100568.39
2022-11-18T17:46:54.228Z,100563.13
2022-11-18T17:49:23.171Z,100558.13
2022-11-18T17:51:52.283Z,100564.83
2022-11-18T17:54:21.219Z,100563.52
2022-11-18T17:56:49.436Z,100566.00
2022-11-18T17:59:18.627Z,100566.85
2022-11-18T18:01:46.855Z,100568.03
2022-11-18T18:04:21.588Z,100568.03
2022-11-18T18:06:53.065Z,100581.89
2022-11-18T18:09:24.101Z,100587.13
2022-11-18T18:11:56.557Z,100586.30
2022-11-18T18:14:24.400Z,100581.89
2022-11-18T18:16:52.270Z,100594.16
2022-11-18T18:19:21.483Z,100590.43
2022-11-18T18:21:49.601Z,100601.15
2022-11-18T18:24:19.422Z,100604.84
2022-11-18T18:26:48.430Z,100601.51
2022-11-18T18:29:16.504Z,100603.99
2022-11-18T18:31:44.603Z,100610.53
2022-11-18T18:34:13.081Z,100606.02
2022-11-18T18:36:41.308Z,100612.20
2022-11-18T18:39:09.368Z,100619.07
2022-11-18T18:41:37.522Z,100610.17
2022-11-18T18:44:05.485Z,100609.00
2022-11-18T18:46:33.582Z,100616.84
2022-11-18T18:49:14.814Z,100613.18
2022-11-18T18:51:44.232Z,100611.52
2022-11-18T18:54:14.100Z,100615.54
2022-11-18T18:56:42.027Z,100612.70
2022-11-18T18:59:09.970Z,100618.55
2022-11-18T19:01:38.262Z,100616.71
2022-11-18T19:04:07.346Z,100627.63
2022-11-18T19:09:27.331Z,100634.47
2022-11-18T19:12:13.952Z,100627.96
2022-11-18T19:14:41.922Z,100624.27
2022-11-18T19:17:11.791Z,100627.27
2022-11-18T19:19:59.703Z,100624.10
2022-11-18T19:22:27.782Z,100629.27
2022-11-18T19:24:56.129Z,100632.44
2022-11-18T19:27:24.360Z,100626.42
2022-11-18T19:29:52.354Z,100626.42
2022-11-18T19:32:20.202Z,100628.91
2022-11-18T19:34:49.973Z,100636.63
2022-11-18T19:37:17.983Z,100635.81
2022-11-18T19:39:45.954Z,100636.17
2022-11-18T19:42:13.927Z,100634.83
2022-11-18T19:44:41.667Z,100631.98
2022-11-18T19:47:09.490Z,100637.31
2022-11-18T19:49:37.343Z,100638.13
2022-11-18T19:52:05.167Z,100644.87
2022-11-18T19:54:36.067Z,100646.53
2022-11-18T19:57:05.094Z,100643.49
2022-11-18T19:59:33.124Z,100638.66
2022-11-18T20:02:01.522Z,100634.96
2022-11-18T20:04:32.202Z,100644.34
2022-11-18T20:07:00.449Z,100636.17
2022-11-18T20:09:28.712Z,100634.14
2022-11-18T20:11:56.786Z,100634.47
2022-11-18T20:14:24.915Z,100633.84
2022-11-18T20:16:57.535Z,100639.54
2022-11-18T20:19:26.445Z,100638.85
2022-11-18T20:21:54.722Z,100633.32
2022-11-18T20:24:27.816Z,100637.02
2022-11-18T20:27:00.265Z,100636.17
2022-11-18T20:29:28.948Z,100635.52
2022-11-18T20:32:01.671Z,100642.41
2022-11-18T20:34:30.464Z,100649.25
2022-11-18T20:36:58.543Z,100646.08
2022-11-18T20:39:26.914Z,100650.95
2022-11-18T20:42:13.389Z,100646.56
2022-11-18T20:44:41.236Z,100640.87
2022-11-18T20:47:09.023Z,100638.88
2022-11-18T20:49:36.889Z,100647.05
2022-11-18T20:52:04.685Z,100641.37
2022-11-18T20:54:32.809Z,100633.52
2022-11-18T20:57:00.630Z,100636.37
2022-11-18T20:59:28.559Z,100637.54
2022-11-18T21:01:56.415Z,100643.23
2022-11-18T21:04:24.491Z,100639.27
2022-11-18T21:07:01.918Z,100645.09
2022-11-18T21:09:33.139Z,100658.66
2022-11-18T21:12:01.001Z,100648.79
2022-11-18T21:14:28.933Z,100642.25
2022-11-18T21:17:04.403Z,100649.12
2022-11-18T21:19:34.094Z,100648.27
2022-11-18T21:22:02.111Z,100655.13
2022-11-18T21:24:30.838Z,100652.81
2022-11-18T21:26:59.093Z,100653.63
2022-11-18T21:29:28.330Z,100663.02
2022-11-18T21:31:58.603Z,100666.19
2022-11-18T21:34:26.504Z,100668.02
2022-11-18T21:36:55.349Z,100672.88
2022-11-18T21:39:28.642Z,100671.55
2022-11-18T21:41:57.688Z,100673.57
2022-11-18T21:44:26.182Z,100678.05
2022-11-18T21:46:54.298Z,100674.75
2022-11-18T21:49:22.888Z,100663.83
2022-11-18T21:51:50.951Z,100671.38
2022-11-18T21:54:19.482Z,100667.55
2022-11-18T21:56:47.489Z,100665.40
2022-11-18T21:59:15.468Z,100660.69
2022-11-18T22:01:43.309Z,100669.06
2022-11-18T22:04:31.244Z,100661.21
2022-11-18T22:07:03.343Z,100657.84
2022-11-18T22:09:36.106Z,100666.38
2022-11-18T22:12:06.198Z,100670.56
2022-11-18T22:14:34.184Z,100670.56
2022-11-18T22:17:01.974Z,100668.54
2022-11-18T22:19:30.330Z,100672.07
2022-11-18T22:21:58.217Z,100676.74
2022-11-18T22:24:26.897Z,100674.42
2022-11-18T22:26:54.795Z,100667.39
2022-11-18T22:29:24.520Z,100669.39
2022-11-18T22:31:52.338Z,100671.58
2022-11-18T22:34:20.802Z,100676.74
2022-11-18T22:36:53.384Z,100672.56
2022-11-18T22:39:21.845Z,100678.74
2022-11-18T22:42:08.883Z,100675.73
2022-11-18T22:44:36.815Z,100678.70
2022-11-18T22:47:04.583Z,100677.07
2022-11-18T22:49:32.506Z,100675.70
2022-11-18T22:52:00.359Z,100680.90
2022-11-18T22:54:38.821Z,100675.53
2022-11-18T22:57:12.118Z,100668.21
2022-11-18T22:59:39.936Z,100672.20
2022-11-18T23:02:08.042Z,100665.50
2022-11-18T23:04:35.854Z,100667.00
2022-11-18T23:07:06.514Z,100660.33
2022-11-18T23:09:34.429Z,100669.68
2022-11-18T23:12:20.919Z,100670.01
2022-11-18T23:14:48.740Z,100675.70
2022-11-18T23:17:17.151Z,100676.84
2022-11-18T23:19:48.416Z,100682.20
2022-11-18T23:22:16.254Z,100680.51
2022-11-18T23:24:44.192Z,100679.52
2022-11-18T23:27:12.896Z,100676.16
2022-11-18T23:29:40.699Z,100669.48
2022-11-18T23:32:08.572Z,100680.96
2022-11-18T23:34:36.580Z,100679.98
2022-11-18T23:37:04.489Z,100684.30
2022-11-18T23:39:32.400Z,100687.14
2022-11-18T23:42:00.264Z,100680.96
2022-11-18T23:44:46.249Z,100681.62
2022-11-18T23:47:14.560Z,100682.27
2022-11-18T23:49:42.493Z,100681.42
2022-11-18T23:52:10.418Z,100681.78
2022-11-18T23:54:41.464Z,100682.44
2022-11-18T23:57:09.307Z,100684.76
2022-11-18T23:59:37.278Z,100689.07
